Time;durP1;ratioP1;P1;durP2;ratioP2;P2;SDS_P1;SDS_P2;PMS_P1;PMS_P2;Temp;Humidity;BMP_temperature;BMP_pressure;BME280_temperature;BME280_humidity;BME280_pressure;Samples;Min_cycle;Max_cycle;Signal;HPM_P1;HPM_P2
2023/08/18 00:01:22;;;;;;;3.80;3.50;;;16.30;99.90;;;;;;4984819;28;94635;-36
2023/08/18 00:03:48;;;;;;;3.17;2.90;;;16.20;99.90;;;;;;4983311;28;94830;-34
2023/08/18 00:06:14;;;;;;;2.80;2.60;;;16.20;99.90;;;;;;4965062;28;93336;-36
2023/08/18 00:08:39;;;;;;;5.97;3.28;;;16.20;99.90;;;;;;4976986;28;95314;-36
2023/08/18 00:11:05;;;;;;;2.85;2.55;;;16.20;99.90;;;;;;4978342;28;94078;-32
2023/08/18 00:13:31;;;;;;;4.32;3.92;;;16.20;99.90;;;;;;4975928;28;94252;-37
2023/08/18 00:15:56;;;;;;;5.72;3.13;;;16.20;99.90;;;;;;4977924;28;93192;-31
2023/08/18 00:18:22;;;;;;;4.40;2.70;;;16.10;99.90;;;;;;4974357;28;94704;-31
2023/08/18 00:20:50;;;;;;;3.35;3.05;;;16.10;99.90;;;;;;4976746;28;96180;-33
2023/08/18 00:23:15;;;;;;;3.22;2.92;;;16.10;99.90;;;;;;4977275;28;92336;-32
2023/08/18 00:25:41;;;;;;;4.00;3.60;;;16.20;99.90;;;;;;4976685;28;92717;-35
2023/08/18 00:28:07;;;;;;;3.75;3.45;;;16.20;99.90;;;;;;4975447;28;95673;-33
2023/08/18 00:30:33;;;;;;;3.83;3.47;;;16.20;99.90;;;;;;4976552;28;95447;-34
2023/08/18 00:32:58;;;;;;;3.90;3.55;;;16.10;99.90;;;;;;4975850;28;93883;-37
2023/08/18 00:35:24;;;;;;;4.00;3.65;;;16.20;99.90;;;;;;4976765;28;93632;-32
2023/08/18 00:37:49;;;;;;;3.40;2.95;;;16.10;99.90;;;;;;4976579;28;94586;-37
2023/08/18 00:40:16;;;;;;;3.72;3.35;;;16.10;99.90;;;;;;4973687;28;93944;-32
2023/08/18 00:42:42;;;;;;;3.78;3.47;;;16.20;99.90;;;;;;4962219;28;92896;-34
2023/08/18 00:45:08;;;;;;;3.97;3.58;;;16.10;99.90;;;;;;4967446;28;93557;-33
2023/08/18 00:47:34;;;;;;;5.10;3.33;;;16.10;99.90;;;;;;4962249;28;96433;-31
2023/08/18 00:50:01;;;;;;;7.18;4.13;;;16.10;99.90;;;;;;4963204;28;94812;-31
2023/08/18 00:52:27;;;;;;;5.95;4.22;;;16.10;99.90;;;;;;4962426;28;93096;-33
2023/08/18 00:54:53;;;;;;;4.70;4.28;;;16.10;99.90;;;;;;4976933;28;94891;-35
2023/08/18 00:57:20;;;;;;;5.07;3.65;;;16.10;99.90;;;;;;4966644;28;94807;-34
2023/08/18 00:59:46;;;;;;;4.05;3.70;;;16.10;99.90;;;;;;4962346;28;94659;-35
2023/08/18 01:02:13;;;;;;;5.00;4.03;;;16.10;99.90;;;;;;4966901;28;93749;-33
2023/08/18 01:04:39;;;;;;;3.70;3.40;;;16.20;99.90;;;;;;4972128;28;93021;-33
2023/08/18 01:07:04;;;;;;;5.03;4.07;;;16.20;99.90;;;;;;4964410;28;94875;-34
2023/08/18 01:09:31;;;;;;;3.45;3.22;;;16.20;99.90;;;;;;4967497;28;95179;-33
2023/08/18 01:12:42;;;;;;;4.50;4.10;;;16.10;99.90;;;;;;4967362;28;93498;-32
2023/08/18 01:15:31;;;;;;;6.97;4.72;;;16.10;99.90;;;;;;4959723;28;93349;-35
2023/08/18 01:18:01;;;;;;;4.65;4.25;;;16.10;99.90;;;;;;4959368;28;96976;-34
2023/08/18 01:20:28;;;;;;;7.15;4.25;;;16.10;99.90;;;;;;4962688;28;94268;-32
2023/08/18 01:22:56;;;;;;;4.40;4.00;;;16.10;99.90;;;;;;4962827;28;94444;-34
2023/08/18 01:25:22;;;;;;;;;;;16.10;99.90;;;;;;4963850;28;92693;-34
2023/08/18 01:27:48;;;;;;;5.20;4.72;;;16.10;99.90;;;;;;4962282;28;95151;-35
2023/08/18 01:30:14;;;;;;;4.22;3.88;;;16.10;99.90;;;;;;4972971;28;94965;-35
2023/08/18 01:32:54;;;;;;;4.43;4.03;;;16.10;99.90;;;;;;4967381;28;93654;-33
2023/08/18 01:35:25;;;;;;;6.65;4.80;;;16.10;99.90;;;;;;4952194;28;92887;-35
2023/08/18 01:37:54;;;;;;;7.75;4.22;;;16.10;99.90;;;;;;4976340;28;94869;-32
2023/08/18 01:40:23;;;;;;;6.57;4.05;;;16.10;99.90;;;;;;4959849;28;94461;-32
2023/08/18 01:42:51;;;;;;;4.38;3.97;;;16.10;99.90;;;;;;4963119;28;95024;-34
2023/08/18 01:45:17;;;;;;;4.95;4.13;;;16.00;99.90;;;;;;4968485;28;93252;-33
2023/08/18 01:47:42;;;;;;;7.97;4.53;;;16.10;99.90;;;;;;4968805;28;94689;-35
2023/08/18 01:50:09;;;;;;;5.38;4.03;;;16.10;99.90;;;;;;4976080;28;94568;-34
2023/08/18 01:52:35;;;;;;;6.40;4.65;;;16.10;99.90;;;;;;4964212;28;93140;-32
2023/08/18 01:55:00;;;;;;;7.40;4.18;;;16.10;99.90;;;;;;4959830;28;94568;-32
2023/08/18 01:57:26;;;;;;;6.32;4.38;;;16.10;99.90;;;;;;4962617;28;94611;-35
2023/08/18 01:59:52;;;;;;;6.72;4.95;;;16.10;99.90;;;;;;4943132;28;94738;-34
2023/08/18 02:02:17;;;;;;;6.72;4.32;;;16.10;99.90;;;;;;4985388;28;94193;-36
2023/08/18 02:04:43;;;;;;;6.80;4.65;;;16.10;99.90;;;;;;4965054;28;94177;-32
2023/08/18 02:07:09;;;;;;;4.38;3.78;;;16.10;99.90;;;;;;4974566;28;95949;-32
2023/08/18 02:09:36;;;;;;;4.63;4.22;;;16.10;99.90;;;;;;4976326;28;95816;-33
2023/08/18 02:12:02;;;;;;;5.67;4.57;;;16.10;99.90;;;;;;4976680;28;93076;-31
2023/08/18 02:14:28;;;;;;;6.00;5.07;;;16.10;99.90;;;;;;4975724;28;92676;-31
2023/08/18 02:16:53;;;;;;;6.40;4.88;;;16.10;99.90;;;;;;4975718;28;94796;-34
2023/08/18 02:19:19;;;;;;;8.23;4.85;;;16.00;99.90;;;;;;4975159;28;94118;-33
2023/08/18 02:21:44;;;;;;;6.00;4.40;;;16.10;99.90;;;;;;4975328;28;93348;-31
2023/08/18 02:24:10;;;;;;;5.95;4.78;;;16.10;99.90;;;;;;4976519;28;93431;-32
2023/08/18 02:26:36;;;;;;;9.23;5.20;;;16.00;99.90;;;;;;4985974;28;94698;-34
2023/08/18 02:29:02;;;;;;;7.45;4.78;;;16.00;99.90;;;;;;4956871;28;94394;-34
2023/08/18 02:31:28;;;;;;;6.22;5.00;;;16.00;99.90;;;;;;4956991;28;94351;-31
2023/08/18 02:33:54;;;;;;;9.20;5.03;;;16.00;99.90;;;;;;4966624;28;94740;-33
2023/08/18 02:36:20;;;;;;;6.93;4.60;;;16.00;99.90;;;;;;4960592;28;95178;-32
2023/08/18 02:38:45;;;;;;;8.73;5.45;;;16.00;99.90;;;;;;4986324;28;94614;-32
2023/08/18 02:41:11;;;;;;;5.13;4.63;;;16.00;99.90;;;;;;4975810;28;92149;-31
2023/08/18 02:43:38;;;;;;;6.20;5.10;;;16.00;99.90;;;;;;4975406;28;94540;-30
2023/08/18 02:46:03;;;;;;;7.07;5.70;;;16.00;99.90;;;;;;4976025;28;94576;-32
2023/08/18 02:48:30;;;;;;;6.53;5.32;;;16.00;99.90;;;;;;4974813;28;94849;-32
2023/08/18 02:51:09;;;;;;;10.27;5.25;;;16.00;99.90;;;;;;4976127;28;94151;-31
2023/08/18 02:53:39;;;;;;;7.28;5.72;;;16.00;99.90;;;;;;4955155;28;92179;-34
2023/08/18 02:56:05;;;;;;;5.22;4.78;;;16.00;99.90;;;;;;4955250;28;95814;-32
2023/08/18 02:58:32;;;;;;;6.45;5.28;;;16.00;99.90;;;;;;4963448;28;95524;-34
2023/08/18 03:01:05;;;;;;;6.05;5.45;;;16.00;99.90;;;;;;4967553;28;93546;-34
2023/08/18 03:03:30;;;;;;;7.90;5.80;;;16.00;99.90;;;;;;4955859;28;94598;-35
2023/08/18 03:06:05;;;;;;;7.10;5.32;;;16.00;99.90;;;;;;4955953;28;94087;-33
2023/08/18 03:08:31;;;;;;;8.13;5.18;;;16.00;99.90;;;;;;4969452;28;94199;-34
2023/08/18 03:10:58;;;;;;;6.40;5.68;;;16.00;99.90;;;;;;4973566;28;93534;-32
2023/08/18 03:13:24;;;;;;;6.65;5.85;;;16.00;99.90;;;;;;4959732;28;94022;-33
2023/08/18 03:15:50;;;;;;;11.38;6.18;;;16.00;99.90;;;;;;4958805;28;94978;-36
2023/08/18 03:18:15;;;;;;;10.50;5.80;;;16.00;99.90;;;;;;4958790;28;94998;-32
2023/08/18 03:20:41;;;;;;;6.72;5.78;;;16.00;99.90;;;;;;4958576;28;95838;-34
2023/08/18 03:23:07;;;;;;;6.13;5.45;;;16.10;99.90;;;;;;4974803;28;92195;-37
2023/08/18 03:25:33;;;;;;;8.63;6.25;;;16.00;99.90;;;;;;4960017;28;94942;-31
2023/08/18 03:27:58;;;;;;;8.35;5.65;;;16.00;99.90;;;;;;4960861;28;94470;-34
2023/08/18 03:30:24;;;;;;;12.45;5.90;;;16.10;99.90;;;;;;4960144;28;93199;-32
2023/08/18 03:32:52;;;;;;;7.20;6.57;;;16.00;99.90;;;;;;4972832;28;93626;-35
2023/08/18 03:35:17;;;;;;;8.13;7.03;;;16.00;99.90;;;;;;4960426;28;94379;-33
2023/08/18 03:37:43;;;;;;;9.15;6.57;;;16.00;99.90;;;;;;4960334;28;96287;-32
2023/08/18 03:40:09;;;;;;;9.25;6.70;;;16.10;99.90;;;;;;4966908;28;93266;-30
2023/08/18 03:42:35;;;;;;;11.32;7.43;;;16.00;99.90;;;;;;4959129;28;94614;-31
2023/08/18 03:45:00;;;;;;;11.55;6.97;;;16.00;99.90;;;;;;4960837;28;95887;-32
2023/08/18 03:47:26;;;;;;;8.50;6.32;;;16.00;99.90;;;;;;4961252;28;95147;-33
2023/08/18 03:49:52;;;;;;;8.10;5.78;;;16.00;99.90;;;;;;4963505;28;93203;-32
2023/08/18 03:52:18;;;;;;;7.70;6.95;;;16.00;99.90;;;;;;4961282;28;94767;-34
2023/08/18 03:54:43;;;;;;;11.30;6.82;;;16.00;99.90;;;;;;4962926;28;94514;-33
2023/08/18 03:57:09;;;;;;;7.28;6.57;;;16.00;99.90;;;;;;4960505;28;94305;-36
2023/08/18 03:59:34;;;;;;;7.85;7.05;;;16.00;99.90;;;;;;4964267;28;94501;-33
2023/08/18 04:02:00;;;;;;;10.77;7.07;;;16.00;99.90;;;;;;4983415;28;92750;-31
2023/08/18 04:04:26;;;;;;;7.07;6.38;;;16.00;99.90;;;;;;4991563;28;93798;-35
2023/08/18 04:06:51;;;;;;;8.85;7.28;;;16.10;99.90;;;;;;4977618;28;95505;-32
2023/08/18 04:09:17;;;;;;;8.02;6.82;;;16.00;99.90;;;;;;4964932;28;95437;-36
2023/08/18 04:11:43;;;;;;;7.70;6.57;;;16.10;99.90;;;;;;4978545;28;94251;-34
2023/08/18 04:14:10;;;;;;;10.95;6.30;;;16.00;99.90;;;;;;4977090;28;95350;-32
2023/08/18 04:16:35;;;;;;;10.93;7.68;;;16.10;99.90;;;;;;4976899;28;95388;-34
2023/08/18 04:19:01;;;;;;;7.60;6.82;;;16.10;99.90;;;;;;4940425;28;94745;-33
2023/08/18 04:21:27;;;;;;;8.38;6.93;;;16.00;99.90;;;;;;4957818;28;92562;-33
2023/08/18 04:23:53;;;;;;;10.63;7.00;;;16.00;99.90;;;;;;4978568;28;94880;-31
2023/08/18 04:26:19;;;;;;;11.35;8.57;;;16.00;99.90;;;;;;4976746;28;95131;-35
2023/08/18 04:28:47;;;;;;;9.35;6.82;;;16.00;99.90;;;;;;4965889;28;93999;-34
2023/08/18 04:31:13;;;;;;;9.23;8.05;;;16.00;99.90;;;;;;4965942;28;93340;-33
2023/08/18 04:33:39;;;;;;;11.75;7.00;;;16.00;99.90;;;;;;4976245;28;95808;-34
2023/08/18 04:36:05;;;;;;;8.75;7.13;;;16.00;99.90;;;;;;4977149;28;96040;-31
2023/08/18 04:38:31;;;;;;;7.93;7.18;;;16.00;99.90;;;;;;4993275;28;93191;-34
2023/08/18 04:40:57;;;;;;;9.43;7.55;;;16.00;99.90;;;;;;4957675;28;92621;-33
2023/08/18 04:43:23;;;;;;;11.38;7.78;;;16.00;99.90;;;;;;4958192;28;93846;-31
2023/08/18 04:45:49;;;;;;;8.30;7.28;;;16.00;99.90;;;;;;4958260;28;95458;-35
2023/08/18 04:48:15;;;;;;;8.55;6.72;;;16.10;99.90;;;;;;4971181;28;93014;-33
2023/08/18 04:50:41;;;;;;;10.90;8.32;;;16.00;99.90;;;;;;4958836;28;92749;-32
2023/08/18 04:53:07;;;;;;;10.30;8.32;;;16.00;99.90;;;;;;4957543;28;95082;-33
2023/08/18 04:55:35;;;;;;;10.80;8.85;;;16.00;99.90;;;;;;4958774;28;94624;-31
2023/08/18 04:58:01;;;;;;;12.73;9.00;;;16.00;99.90;;;;;;4957747;28;93113;-30
2023/08/18 05:00:26;;;;;;;8.73;7.47;;;16.00;99.90;;;;;;4957277;28;94546;-34
2023/08/18 05:02:52;;;;;;;9.70;8.80;;;16.00;99.90;;;;;;4984316;28;94060;-30
2023/08/18 05:05:18;;;;;;;10.85;9.30;;;16.00;99.90;;;;;;4957018;28;95080;-34
2023/08/18 05:07:45;;;;;;;11.82;7.82;;;16.10;99.90;;;;;;4946813;28;93120;-32
2023/08/18 05:10:11;;;;;;;16.90;9.25;;;16.10;99.90;;;;;;4977472;28;94062;-34
2023/08/18 05:12:36;;;;;;;10.85;7.50;;;16.10;99.90;;;;;;4969184;28;94801;-34
2023/08/18 05:15:03;;;;;;;9.05;7.25;;;16.20;99.90;;;;;;4966372;28;95830;-32
2023/08/18 05:17:29;;;;;;;8.18;7.43;;;16.10;99.90;;;;;;4970122;28;94961;-33
2023/08/18 05:19:55;;;;;;;11.63;8.30;;;16.10;99.90;;;;;;4970132;28;93355;-34
2023/08/18 05:22:21;;;;;;;9.40;8.50;;;16.10;99.90;;;;;;4969853;28;95920;-31
2023/08/18 05:24:48;;;;;;;9.73;7.80;;;16.20;99.90;;;;;;4965266;28;96675;-31
2023/08/18 05:27:15;;;;;;;11.95;8.80;;;16.10;99.90;;;;;;4974451;28;93119;-35
2023/08/18 05:29:40;;;;;;;11.68;8.23;;;16.10;99.90;;;;;;4966020;28;94680;-30
2023/08/18 05:32:06;;;;;;;12.70;8.18;;;16.10;99.90;;;;;;4975233;28;94685;-31
2023/08/18 05:34:31;;;;;;;11.80;9.05;;;16.20;99.90;;;;;;4965311;28;94326;-37
2023/08/18 05:36:57;;;;;;;12.35;7.95;;;16.10;99.90;;;;;;4972483;28;93595;-33
2023/08/18 05:39:23;;;;;;;11.90;8.05;;;16.20;99.90;;;;;;4975355;28;94046;-36
2023/08/18 05:41:48;;;;;;;11.93;8.43;;;16.20;99.90;;;;;;4972979;28;95877;-31
2023/08/18 05:44:14;;;;;;;14.18;9.85;;;16.20;99.90;;;;;;4966090;28;94070;-32
2023/08/18 05:46:40;;;;;;;14.80;9.25;;;16.30;99.90;;;;;;4977674;28;95268;-36
2023/08/18 05:49:07;;;;;;;10.93;9.13;;;16.30;99.90;;;;;;4964923;28;94339;-35
2023/08/18 05:51:32;;;;;;;9.68;8.07;;;16.20;99.90;;;;;;4973216;28;94925;-32
2023/08/18 05:53:58;;;;;;;14.35;9.98;;;16.20;99.90;;;;;;4974336;28;94868;-36
2023/08/18 05:56:24;;;;;;;17.20;9.25;;;16.30;99.90;;;;;;4985677;28;93403;-34
2023/08/18 05:58:49;;;;;;;10.52;8.32;;;16.30;99.90;;;;;;4966680;28;94065;-30
2023/08/18 06:01:17;;;;;;;11.63;9.35;;;16.30;99.90;;;;;;4980089;28;95338;-33
2023/08/18 06:03:42;;;;;;;13.30;8.43;;;16.30;99.90;;;;;;4980398;28;95215;-36
2023/08/18 06:06:08;;;;;;;8.85;7.68;;;16.30;99.90;;;;;;4974908;28;92385;-33
2023/08/18 06:08:34;;;;;;;10.27;8.00;;;16.40;99.90;;;;;;4973636;28;93369;-32
2023/08/18 06:11:00;;;;;;;8.50;7.63;;;16.40;99.90;;;;;;4973366;28;95840;-37
2023/08/18 06:13:25;;;;;;;9.88;8.88;;;16.40;99.90;;;;;;4973967;28;95148;-34
2023/08/18 06:15:54;;;;;;;9.77;8.48;;;16.50;99.90;;;;;;4979783;28;94613;-33
2023/08/18 06:18:20;;;;;;;10.85;9.73;;;16.50;99.90;;;;;;4978155;28;92995;-34
2023/08/18 06:20:46;;;;;;;9.45;7.60;;;16.50;99.90;;;;;;4974094;28;94345;-31
2023/08/18 06:23:11;;;;;;;18.55;10.52;;;16.60;99.90;;;;;;4972841;28;94499;-31
2023/08/18 06:25:38;;;;;;;12.27;9.93;;;16.60;99.90;;;;;;4982858;28;94567;-32
2023/08/18 06:28:05;;;;;;;13.95;10.73;;;16.60;99.90;;;;;;4965329;28;91896;-31
2023/08/18 06:30:31;;;;;;;11.17;9.10;;;16.60;99.90;;;;;;4953370;28;94830;-32
2023/08/18 06:32:56;;;;;;;17.90;9.57;;;16.50;99.90;;;;;;4955026;28;94566;-35
2023/08/18 06:35:22;;;;;;;13.45;9.10;;;16.60;99.90;;;;;;4954356;28;95491;-33
2023/08/18 06:37:48;;;;;;;13.70;9.00;;;16.60;99.90;;;;;;4974545;28;95454;-35
2023/08/18 06:40:13;;;;;;;13.50;10.20;;;16.60;99.90;;;;;;4977024;28;94781;-32
2023/08/18 06:42:39;;;;;;;14.27;9.65;;;16.60;99.90;;;;;;4971918;28;94609;-36
2023/08/18 06:45:05;;;;;;;13.90;8.85;;;16.60;99.90;;;;;;4985690;28;94241;-34
2023/08/18 06:47:31;;;;;;;13.55;8.38;;;16.70;99.90;;;;;;4972689;28;93916;-35
2023/08/18 06:49:56;;;;;;;10.65;8.60;;;16.70;99.90;;;;;;4962814;28;94344;-32
2023/08/18 06:52:22;;;;;;;13.38;9.73;;;16.80;99.90;;;;;;4973287;28;93552;-35
2023/08/18 06:54:48;;;;;;;14.38;8.80;;;16.80;99.90;;;;;;4986299;28;93110;-31
2023/08/18 06:57:13;;;;;;;14.20;10.27;;;16.80;99.90;;;;;;4983748;28;94887;-31
2023/08/18 06:59:39;;;;;;;13.75;10.23;;;16.80;99.90;;;;;;4969813;28;95757;-33
2023/08/18 07:02:05;;;;;;;12.88;9.98;;;16.90;99.90;;;;;;4969493;28;95304;-36
2023/08/18 07:04:31;;;;;;;16.42;12.00;;;16.90;99.90;;;;;;4967437;28;94286;-34
2023/08/18 07:06:57;;;;;;;12.10;9.88;;;16.90;99.90;;;;;;4969023;28;92554;-36
2023/08/18 07:09:22;;;;;;;21.13;11.93;;;16.90;99.90;;;;;;4967673;28;95348;-33
2023/08/18 07:11:48;;;;;;;15.00;10.18;;;16.90;99.90;;;;;;4969290;28;94658;-34
2023/08/18 07:14:13;;;;;;;23.20;12.68;;;16.90;99.90;;;;;;4969993;28;94643;-33
2023/08/18 07:16:39;;;;;;;21.20;12.10;;;17.00;99.90;;;;;;4969142;28;91923;-33
2023/08/18 07:19:05;;;;;;;17.15;10.80;;;16.90;99.90;;;;;;4967479;28;94778;-33
2023/08/18 07:21:30;;;;;;;24.45;11.00;;;17.00;99.90;;;;;;4968610;28;94454;-32
2023/08/18 07:23:56;;;;;;;23.35;12.85;;;17.00;99.90;;;;;;4969846;28;94527;-34
2023/08/18 07:26:21;;;;;;;19.35;11.18;;;17.00;99.90;;;;;;4971458;28;92863;-32
2023/08/18 07:28:47;;;;;;;15.73;10.60;;;17.00;99.90;;;;;;4978483;28;95175;-33
2023/08/18 07:31:13;;;;;;;22.02;12.75;;;17.00;99.90;;;;;;4967486;28;94527;-36
2023/08/18 07:33:38;;;;;;;24.25;13.65;;;17.00;99.90;;;;;;4962163;28;93428;-36
2023/08/18 07:36:04;;;;;;;18.15;12.50;;;17.00;99.90;;;;;;4963142;28;92925;-33
2023/08/18 07:38:34;;;;;;;16.98;12.85;;;17.00;99.90;;;;;;4982138;28;94248;-34
2023/08/18 07:41:00;;;;;;;21.73;13.85;;;17.00;99.90;;;;;;4952711;28;93986;-32
2023/08/18 07:43:26;;;;;;;15.93;12.73;;;17.00;99.90;;;;;;4975982;28;93300;-33
2023/08/18 07:45:52;;;;;;;15.45;12.30;;;17.10;99.90;;;;;;4961873;28;92229;-33
2023/08/18 07:48:17;;;;;;;30.35;15.00;;;17.10;99.90;;;;;;4959518;28;95574;-35
2023/08/18 07:50:43;;;;;;;26.35;14.77;;;17.10;99.90;;;;;;4954683;28;95076;-34
2023/08/18 07:53:09;;;;;;;26.15;13.68;;;17.10;99.90;;;;;;4957765;28;92491;-34
2023/08/18 07:55:36;;;;;;;20.63;13.25;;;17.10;99.90;;;;;;4966810;28;94384;-37
2023/08/18 07:58:03;;;;;;;24.50;15.07;;;17.20;99.90;;;;;;4967296;28;94366;-33
2023/08/18 08:00:30;;;;;;;22.42;14.68;;;17.20;99.90;;;;;;4958424;28;94514;-33
2023/08/18 08:02:57;;;;;;;29.17;16.55;;;17.30;99.90;;;;;;4954978;28;93227;-36
2023/08/18 08:05:23;;;;;;;19.23;13.45;;;17.30;99.90;;;;;;4955612;28;91946;-32
2023/08/18 08:07:49;;;;;;;23.27;14.35;;;17.30;99.90;;;;;;4955405;28;94680;-34
2023/08/18 08:10:15;;;;;;;26.52;16.15;;;17.30;99.90;;;;;;4954826;28;94871;-31
2023/08/18 08:12:41;;;;;;;20.25;13.38;;;17.30;99.90;;;;;;4956141;28;94247;-33
2023/08/18 08:15:11;;;;;;;26.23;16.27;;;17.40;99.90;;;;;;4961647;28;93884;-32
2023/08/18 08:17:37;;;;;;;24.35;14.32;;;17.40;99.90;;;;;;4955181;28;94428;-35
2023/08/18 08:20:07;;;;;;;22.60;14.25;;;17.50;99.90;;;;;;4964177;28;94919;-33
2023/08/18 08:22:33;;;;;;;27.92;15.40;;;17.60;99.90;;;;;;5002348;22;94881;-32
2023/08/18 08:24:58;;;;;;;22.88;14.90;;;17.70;99.90;;;;;;4958218;28;93118;-36
2023/08/18 08:27:24;;;;;;;21.92;14.38;;;17.70;99.90;;;;;;4961531;28;94971;-34
2023/08/18 08:29:51;;;;;;;22.65;14.60;;;17.80;99.90;;;;;;4963047;28;94614;-34
2023/08/18 08:32:17;;;;;;;23.90;13.53;;;17.90;99.90;;;;;;4961792;28;92960;-34
2023/08/18 08:34:50;;;;;;;26.90;14.05;;;18.00;99.90;;;;;;4963944;28;94441;-34
2023/08/18 08:37:17;;;;;;;21.15;13.45;;;18.10;99.90;;;;;;4943086;28;95320;-35
2023/08/18 08:39:42;;;;;;;18.95;13.05;;;18.30;99.90;;;;;;4966904;28;95061;-34
2023/08/18 08:42:09;;;;;;;22.55;14.10;;;18.40;99.90;;;;;;4965824;28;94189;-32
2023/08/18 08:44:35;;;;;;;20.90;13.80;;;18.40;99.90;;;;;;4973034;28;94826;-32
2023/08/18 08:47:01;;;;;;;17.05;12.32;;;18.40;99.90;;;;;;4964982;28;94912;-34
2023/08/18 08:49:30;;;;;;;17.10;11.65;;;18.50;99.90;;;;;;4967584;28;94802;-36
2023/08/18 08:52:06;;;;;;;20.48;12.13;;;18.60;99.90;;;;;;4964787;28;94555;-31
2023/08/18 08:54:43;;;;;;;19.80;12.77;;;18.60;99.90;;;;;;4962058;28;94169;-31
2023/08/18 08:57:10;;;;;;;16.95;13.20;;;18.80;99.90;;;;;;4964245;28;95091;-35
2023/08/18 08:59:36;;;;;;;16.75;12.48;;;18.80;99.90;;;;;;4968878;28;94259;-35
2023/08/18 09:02:02;;;;;;;20.48;13.07;;;18.80;99.90;;;;;;4974193;28;94040;-32
2023/08/18 09:04:28;;;;;;;14.98;12.40;;;18.80;99.90;;;;;;4960081;28;94598;-35
2023/08/18 09:06:55;;;;;;;17.08;14.30;;;18.90;99.90;;;;;;4956931;28;94356;-32
2023/08/18 09:09:20;;;;;;;18.60;14.23;;;18.90;99.90;;;;;;4960871;28;95917;-33
2023/08/18 09:11:47;;;;;;;17.77;11.73;;;18.90;99.90;;;;;;4957519;28;94302;-36
2023/08/18 09:14:14;;;;;;;16.77;12.90;;;18.90;99.90;;;;;;4957207;28;94707;-31
2023/08/18 09:16:39;;;;;;;14.35;11.23;;;18.90;99.90;;;;;;4957942;28;94184;-33
2023/08/18 09:19:05;;;;;;;18.50;13.23;;;18.90;99.90;;;;;;4965047;28;94473;-32
2023/08/18 09:21:34;;;;;;;18.17;12.75;;;19.00;99.90;;;;;;4973359;28;92548;-33
2023/08/18 09:23:59;;;;;;;18.33;14.48;;;19.00;99.90;;;;;;4961298;28;94649;-36
2023/08/18 09:26:26;;;;;;;21.88;12.85;;;19.00;99.90;;;;;;4959666;28;95552;-37
2023/08/18 09:28:52;;;;;;;15.98;13.35;;;19.10;99.90;;;;;;4963120;28;95259;-33
2023/08/18 09:31:21;;;;;;;22.67;12.52;;;19.20;99.90;;;;;;4959929;28;94475;-31
2023/08/18 09:33:46;;;;;;;19.02;12.90;;;19.30;99.90;;;;;;4959459;28;93076;-31
2023/08/18 09:36:13;;;;;;;16.67;12.55;;;19.30;99.90;;;;;;4961999;28;95065;-34
2023/08/18 09:38:43;;;;;;;15.75;12.30;;;19.40;99.90;;;;;;4971946;28;94408;-36
2023/08/18 09:41:10;;;;;;;16.30;12.23;;;19.40;99.90;;;;;;4973325;28;93512;-35
2023/08/18 09:43:36;;;;;;;14.80;11.88;;;19.50;99.90;;;;;;4972898;28;92426;-35
2023/08/18 09:46:06;;;;;;;15.40;12.43;;;19.60;99.90;;;;;;4973562;28;94767;-35
2023/08/18 09:48:39;;;;;;;13.48;10.93;;;19.60;99.90;;;;;;4954913;28;94316;-37
2023/08/18 09:51:12;;;;;;;14.20;12.60;;;19.70;99.90;;;;;;4952817;28;93406;-31
2023/08/18 09:53:49;;;;;;;12.45;10.98;;;19.70;99.90;;;;;;4953461;28;93522;-33
2023/08/18 09:56:21;;;;;;;16.40;11.65;;;19.80;99.90;;;;;;4966082;28;95408;-33
2023/08/18 09:58:52;;;;;;;12.00;10.73;;;19.80;99.90;;;;;;4955549;28;94926;-35
2023/08/18 10:01:18;;;;;;;13.35;11.75;;;19.90;99.90;;;;;;4962066;28;93515;-33
2023/08/18 10:03:46;;;;;;;15.30;10.50;;;19.90;99.90;;;;;;4971989;28;93483;-36
2023/08/18 10:06:12;;;;;;;12.77;10.50;;;20.00;99.90;;;;;;4964990;28;94527;-33
2023/08/18 10:08:39;;;;;;;11.45;10.30;;;19.90;99.90;;;;;;4967697;28;95163;-35
2023/08/18 10:11:05;;;;;;;12.50;11.40;;;20.00;99.90;;;;;;4973431;28;93533;-33
2023/08/18 10:13:33;;;;;;;13.63;10.02;;;20.10;99.90;;;;;;4971857;28;93482;-35
2023/08/18 10:16:01;;;;;;;13.63;11.23;;;20.10;99.90;;;;;;4972479;28;94359;-37
2023/08/18 10:18:27;;;;;;;13.23;12.00;;;20.10;99.90;;;;;;4971925;28;95507;-33
2023/08/18 10:20:53;;;;;;;14.43;11.52;;;20.20;99.90;;;;;;4972241;28;94030;-32
2023/08/18 10:23:22;;;;;;;12.20;10.93;;;20.20;99.90;;;;;;4972332;28;94299;-37
2023/08/18 10:25:52;;;;;;;17.27;11.45;;;20.30;99.90;;;;;;4972205;28;95792;-32
2023/08/18 10:28:19;;;;;;;13.25;11.90;;;20.40;99.90;;;;;;4971568;28;94603;-32
2023/08/18 10:30:57;;;;;;;12.70;11.03;;;20.50;99.90;;;;;;4954125;28;93036;-34
2023/08/18 10:33:35;;;;;;;14.90;11.50;;;20.50;99.90;;;;;;4972735;28;92248;-32
2023/08/18 10:36:03;;;;;;;13.48;11.80;;;20.60;99.90;;;;;;4959030;28;94711;-33
2023/08/18 10:38:29;;;;;;;;;;;20.70;99.90;;;;;;4970520;28;94293;-33
2023/08/18 10:40:55;;;;;;;13.55;10.95;;;20.70;99.90;;;;;;4963304;28;94610;-36
2023/08/18 10:43:24;;;;;;;13.88;12.18;;;21.00;99.90;;;;;;4972970;28;93881;-32
2023/08/18 10:45:51;;;;;;;12.90;11.55;;;21.20;99.90;;;;;;4972720;28;94857;-35
2023/08/18 10:48:17;;;;;;;13.80;12.50;;;21.20;99.90;;;;;;4971817;28;95537;-32
2023/08/18 10:50:45;;;;;;;13.52;12.15;;;21.30;99.90;;;;;;4972984;28;92855;-35
2023/08/18 10:53:13;;;;;;;;;;;21.40;99.90;;;;;;4968888;28;93814;-32
2023/08/18 10:55:43;;;;;;;17.20;13.25;;;21.50;99.90;;;;;;4964819;28;96445;-33
2023/08/18 10:58:09;;;;;;;14.77;13.27;;;21.60;99.90;;;;;;4972498;28;94479;-33
2023/08/18 11:00:36;;;;;;;14.70;12.88;;;21.60;99.90;;;;;;4972503;28;94591;-34
2023/08/18 11:03:05;;;;;;;14.13;12.90;;;21.70;99.90;;;;;;4965732;28;94987;-35
2023/08/18 11:05:31;;;;;;;13.50;12.10;;;21.70;99.90;;;;;;4966225;28;96229;-37
2023/08/18 11:07:58;;;;;;;17.73;13.80;;;21.70;99.90;;;;;;4972380;28;96621;-33
2023/08/18 11:10:24;;;;;;;15.63;14.02;;;21.60;99.90;;;;;;4953866;28;93730;-32
2023/08/18 11:12:52;;;;;;;16.75;14.93;;;21.60;99.90;;;;;;4972246;28;93661;-35
2023/08/18 11:15:20;;;;;;;16.52;14.73;;;21.70;99.90;;;;;;4969348;28;94411;-31
2023/08/18 11:17:46;;;;;;;19.20;16.10;;;21.80;99.90;;;;;;4969478;28;94346;-33
2023/08/18 11:20:13;;;;;;;14.98;13.55;;;21.90;99.90;;;;;;4969162;28;93139;-33
2023/08/18 11:22:44;;;;;;;16.83;13.70;;;22.20;99.90;;;;;;4970794;28;91961;-36
2023/08/18 11:25:14;;;;;;;14.70;13.00;;;22.50;99.90;;;;;;4966905;28;95381;-35
2023/08/18 11:27:42;;;;;;;18.52;13.85;;;22.70;99.90;;;;;;4971374;28;95525;-32
2023/08/18 11:30:10;;;;;;;16.90;15.18;;;22.90;99.90;;;;;;4968842;28;95435;-35
2023/08/18 11:32:37;;;;;;;18.88;15.82;;;23.00;99.90;;;;;;4975691;28;93933;-33
2023/08/18 11:35:09;;;;;;;17.35;15.50;;;22.90;99.90;;;;;;4970577;28;94848;-33
2023/08/18 11:37:44;;;;;;;16.00;14.43;;;23.10;99.90;;;;;;4972652;28;95758;-34
2023/08/18 11:40:18;;;;;;;17.33;15.18;;;23.00;99.90;;;;;;4941091;28;94386;-33
2023/08/18 11:42:45;;;;;;;18.73;15.30;;;22.70;99.90;;;;;;4966632;28;94996;-34
2023/08/18 11:45:15;;;;;;;17.90;16.00;;;22.80;99.90;;;;;;4958153;28;95233;-37
2023/08/18 11:47:44;;;;;;;19.48;15.23;;;23.00;99.90;;;;;;4956733;28;94021;-36
2023/08/18 11:50:13;;;;;;;17.42;15.68;;;23.00;99.90;;;;;;4956020;28;94043;-35
2023/08/18 11:52:49;;;;;;;24.15;15.48;;;23.20;99.90;;;;;;4956082;28;93465;-37
2023/08/18 11:55:15;;;;;;;16.70;15.07;;;23.30;99.90;;;;;;4955466;28;96572;-35
2023/08/18 11:57:44;;;;;;;17.85;16.00;;;23.20;99.90;;;;;;4957412;28;95285;-33
2023/08/18 12:00:14;;;;;;;17.60;15.65;;;23.10;99.90;;;;;;4956740;28;94842;-33
2023/08/18 12:02:49;;;;;;;18.45;16.50;;;23.10;99.90;;;;;;4971218;28;94543;-33
2023/08/18 12:05:22;;;;;;;17.05;15.25;;;23.30;99.90;;;;;;4962545;28;94786;-37
2023/08/18 12:07:52;;;;;;;18.58;15.02;;;23.30;99.90;;;;;;4973548;28;94450;-34
2023/08/18 12:10:20;;;;;;;21.38;17.67;;;23.40;99.90;;;;;;4974810;28;94476;-32
2023/08/18 12:12:53;;;;;;;17.00;15.20;;;23.40;99.90;;;;;;4974567;28;91892;-37
2023/08/18 12:15:21;;;;;;;19.55;16.75;;;23.40;99.90;;;;;;4975174;28;94460;-37
2023/08/18 12:17:46;;;;;;;17.10;15.45;;;23.50;99.90;;;;;;4973879;28;93240;-36
2023/08/18 12:20:12;;;;;;;16.25;14.35;;;23.50;99.90;;;;;;4973390;28;94896;-37
2023/08/18 12:22:38;;;;;;;17.80;14.88;;;23.50;99.90;;;;;;4974461;28;94412;-32
2023/08/18 12:25:05;;;;;;;20.20;15.32;;;23.60;99.90;;;;;;4974565;28;94688;-36
2023/08/18 12:27:33;;;;;;;18.73;14.93;;;23.50;99.90;;;;;;4974062;28;94986;-34
2023/08/18 12:30:03;;;;;;;19.95;15.32;;;23.60;99.90;;;;;;4974541;28;93515;-34
2023/08/18 12:32:30;;;;;;;17.20;15.43;;;23.70;99.90;;;;;;4973834;28;93646;-33
2023/08/18 12:34:58;;;;;;;15.90;14.43;;;23.90;99.90;;;;;;4974464;28;95151;-33
2023/08/18 12:37:23;;;;;;;20.20;18.02;;;24.10;99.90;;;;;;4974209;28;94580;-34